createdAt,value
2022-11-18T00:00:37.486Z,6.88
2022-11-18T00:00:56.122Z,6.88
2022-11-18T00:01:27.337Z,6.88
2022-11-18T00:01:58.171Z,6.88
2022-11-18T00:02:29.198Z,6.88
2022-11-18T00:03:01.141Z,6.88
2022-11-18T00:03:31.132Z,6.88
2022-11-18T00:04:02.329Z,6.88
2022-11-18T00:04:33.120Z,6.88
2022-11-18T00:05:04.145Z,6.88
2022-11-18T00:05:35.108Z,6.88
2022-11-18T00:06:06.182Z,6.88
2022-11-18T00:06:37.122Z,6.77
2022-11-18T00:07:08.170Z,6.77
2022-11-18T00:07:39.247Z,6.77
2022-11-18T00:08:11.123Z,6.77
2022-11-18T00:08:41.170Z,6.77
2022-11-18T00:09:12.190Z,6.77
2022-11-18T00:09:43.238Z,6.77
2022-11-18T00:10:14.251Z,6.77
2022-11-18T00:10:45.167Z,6.77
2022-11-18T00:11:16.192Z,6.77
2022-11-18T00:11:47.135Z,6.77
2022-11-18T00:12:18.301Z,6.77
2022-11-18T00:12:49.795Z,6.77
2022-11-18T00:13:21.191Z,6.77
2022-11-18T00:13:51.114Z,6.77
2022-11-18T00:14:23.333Z,6.77
2022-11-18T00:14:54.187Z,6.77
2022-11-18T00:15:38.360Z,6.72
2022-11-18T00:15:57.768Z,6.72
2022-11-18T00:16:27.356Z,6.72
2022-11-18T00:16:57.194Z,6.72
2022-11-18T00:17:28.171Z,6.72
2022-11-18T00:17:59.125Z,6.72
2022-11-18T00:18:31.153Z,6.72
2022-11-18T00:19:01.212Z,6.72
2022-11-18T00:19:32.155Z,6.72
2022-11-18T00:20:03.201Z,6.72
2022-11-18T00:20:34.153Z,6.72
2022-11-18T00:21:05.230Z,6.72
2022-11-18T00:21:36.176Z,6.72
2022-11-18T00:22:07.146Z,6.72
2022-11-18T00:22:38.203Z,6.72
2022-11-18T00:23:09.143Z,6.72
2022-11-18T00:23:41.189Z,6.72
2022-11-18T00:24:11.124Z,6.72
2022-11-18T00:24:42.179Z,6.61
2022-11-18T00:25:13.137Z,6.61
2022-11-18T00:25:44.172Z,6.61
2022-11-18T00:26:15.167Z,6.61
2022-11-18T00:26:46.119Z,6.61
2022-11-18T00:27:17.172Z,6.61
2022-11-18T00:27:48.157Z,6.61
2022-11-18T00:28:19.129Z,6.61
2022-11-18T00:28:51.127Z,6.61
2022-11-18T00:29:21.445Z,6.61
2022-11-18T00:29:52.104Z,6.61
2022-11-18T00:30:35.533Z,6.61
2022-11-18T00:30:54.175Z,6.61
2022-11-18T00:31:25.124Z,6.61
2022-11-18T00:31:56.150Z,6.61
2022-11-18T00:32:27.118Z,6.61
2022-11-18T00:32:58.118Z,6.61
2022-11-18T00:33:29.217Z,6.61
2022-11-18T00:34:01.219Z,6.61
2022-11-18T00:34:31.111Z,6.61
2022-11-18T00:35:02.314Z,6.61
2022-11-18T00:35:33.130Z,6.61
2022-11-18T00:36:04.187Z,6.61
2022-11-18T00:36:35.133Z,6.50
2022-11-18T00:37:06.150Z,6.50
2022-11-18T00:37:37.166Z,6.50
2022-11-18T00:38:08.151Z,6.50
2022-11-18T00:38:39.104Z,6.50
2022-11-18T00:39:11.176Z,6.50
2022-11-18T00:39:41.176Z,6.50
2022-11-18T00:40:12.102Z,6.50
2022-11-18T00:40:43.168Z,6.50
2022-11-18T00:41:14.119Z,6.50
2022-11-18T00:41:45.100Z,6.50
2022-11-18T00:42:16.190Z,6.50
2022-11-18T00:42:47.137Z,6.61
2022-11-18T00:43:18.118Z,6.61
2022-11-18T00:43:49.116Z,6.61
2022-11-18T00:44:21.141Z,6.61
2022-11-18T00:44:51.166Z,6.61
2022-11-18T00:45:34.480Z,6.61
2022-11-18T00:45:53.131Z,6.61
2022-11-18T00:46:24.161Z,6.61
2022-11-18T00:46:55.116Z,6.61
2022-11-18T00:47:26.115Z,6.61
2022-11-18T00:47:57.141Z,6.50
2022-11-18T00:48:28.183Z,6.50
2022-11-18T00:48:59.106Z,6.50
2022-11-18T00:49:31.095Z,6.50
2022-11-18T00:50:01.428Z,6.50
2022-11-18T00:50:32.128Z,6.50
2022-11-18T00:51:03.201Z,6.50
2022-11-18T00:51:34.130Z,6.50
2022-11-18T00:52:05.149Z,6.50
2022-11-18T00:52:36.157Z,6.50
2022-11-18T00:53:07.140Z,6.50
2022-11-18T00:53:38.193Z,6.50
2022-11-18T00:54:09.132Z,6.50
2022-11-18T00:54:41.123Z,6.50
2022-11-18T00:55:11.157Z,6.50
2022-11-18T00:55:42.129Z,6.38
2022-11-18T00:56:13.137Z,6.38
2022-11-18T00:56:44.134Z,6.38
2022-11-18T00:57:15.103Z,6.38
2022-11-18T00:57:48.768Z,6.38
2022-11-18T00:58:17.127Z,6.38
2022-11-18T00:58:48.113Z,6.38
2022-11-18T00:59:19.524Z,6.38
2022-11-18T00:59:51.113Z,6.50
2022-11-18T01:00:33.459Z,6.50
2022-11-18T01:00:52.204Z,6.50
2022-11-18T01:01:23.202Z,6.50
2022-11-18T01:01:54.238Z,6.50
2022-11-18T01:02:25.172Z,6.50
2022-11-18T01:02:56.116Z,6.50
2022-11-18T01:03:27.116Z,6.50
2022-11-18T01:03:58.128Z,6.61
2022-11-18T01:04:29.147Z,6.61
2022-11-18T01:05:01.199Z,6.61
2022-11-18T01:05:31.124Z,6.61
2022-11-18T01:06:02.253Z,6.61
2022-11-18T01:06:33.151Z,6.61
2022-11-18T01:07:04.208Z,6.61
2022-11-18T01:07:35.300Z,6.61
2022-11-18T01:08:06.155Z,6.61
2022-11-18T01:08:37.098Z,6.61
2022-11-18T01:09:08.141Z,6.61
2022-11-18T01:09:40.303Z,6.61
2022-11-18T01:10:11.220Z,6.61
2022-11-18T01:10:41.239Z,6.61
2022-11-18T01:11:12.122Z,6.61
2022-11-18T01:11:43.133Z,6.61
2022-11-18T01:12:14.204Z,6.61
2022-11-18T01:12:47.075Z,6.61
2022-11-18T01:13:16.127Z,6.61
2022-11-18T01:13:47.129Z,6.72
2022-11-18T01:14:18.388Z,6.72
2022-11-18T01:14:49.117Z,6.72
2022-11-18T01:15:36.904Z,6.72
2022-11-18T01:15:51.199Z,6.72
2022-11-18T01:16:22.142Z,6.72
2022-11-18T01:16:53.115Z,6.72
2022-11-18T01:17:24.108Z,6.72
2022-11-18T01:17:55.189Z,6.72
2022-11-18T01:18:26.122Z,6.72
2022-11-18T01:18:57.097Z,6.72
2022-11-18T01:19:28.140Z,6.72
2022-11-18T01:19:59.154Z,6.72
2022-11-18T01:20:31.201Z,6.72
2022-11-18T01:21:01.210Z,6.61
2022-11-18T01:21:32.108Z,6.61
2022-11-18T01:22:03.533Z,6.61
2022-11-18T01:22:34.158Z,6.61
2022-11-18T01:23:05.124Z,6.61
2022-11-18T01:23:36.160Z,6.61
2022-11-18T01:24:07.134Z,6.61
2022-11-18T01:24:38.135Z,6.61
2022-11-18T01:25:09.150Z,6.61
2022-11-18T01:25:41.166Z,6.61
2022-11-18T01:26:11.130Z,6.61
2022-11-18T01:26:42.117Z,6.61
2022-11-18T01:27:13.157Z,6.61
2022-11-18T01:27:44.244Z,6.61
2022-11-18T01:28:18.872Z,6.61
2022-11-18T01:28:46.114Z,6.61
2022-11-18T01:29:17.345Z,6.61
2022-11-18T01:29:48.113Z,6.61
2022-11-18T01:30:31.434Z,6.61
2022-11-18T01:30:51.113Z,6.61
2022-11-18T01:31:21.117Z,6.61
2022-11-18T01:32:17.485Z,6.61
2022-11-18T01:32:54.122Z,6.61
2022-11-18T01:33:25.146Z,6.61
2022-11-18T01:33:56.178Z,6.61
2022-11-18T01:34:27.105Z,6.61
2022-11-18T01:34:58.105Z,6.61
2022-11-18T01:35:29.123Z,6.61
2022-11-18T01:36:01.196Z,6.61
2022-11-18T01:36:31.099Z,6.61
2022-11-18T01:37:02.209Z,6.61
2022-11-18T01:37:33.104Z,6.61
2022-11-18T01:38:04.146Z,6.61
2022-11-18T01:38:35.240Z,6.61
2022-11-18T01:39:06.175Z,6.61
2022-11-18T01:39:37.106Z,6.61
2022-11-18T01:40:08.172Z,6.61
2022-11-18T01:40:39.119Z,6.61
2022-11-18T01:41:11.110Z,6.50
2022-11-18T01:41:41.159Z,6.50
2022-11-18T01:42:12.101Z,6.50
2022-11-18T01:42:43.096Z,6.50
2022-11-18T01:43:14.106Z,6.50
2022-11-18T01:43:45.084Z,6.50
2022-11-18T01:44:16.130Z,6.50
2022-11-18T01:44:47.107Z,6.50
2022-11-18T01:45:30.425Z,6.50
2022-11-18T01:45:49.101Z,6.50
2022-11-18T01:46:21.111Z,6.50
2022-11-18T01:46:51.131Z,6.50
2022-11-18T01:47:22.136Z,6.50
2022-11-18T01:47:53.177Z,6.50
2022-11-18T01:48:24.105Z,6.50
2022-11-18T01:48:55.155Z,6.50
2022-11-18T01:49:26.098Z,6.50
2022-11-18T01:49:57.151Z,6.50
2022-11-18T01:50:28.095Z,6.50
2022-11-18T01:50:59.109Z,6.50
2022-11-18T01:51:31.081Z,6.50
2022-11-18T01:52:01.183Z,6.50
2022-11-18T01:52:32.091Z,6.50
2022-11-18T01:53:03.140Z,6.50
2022-11-18T01:53:34.123Z,6.50
2022-11-18T01:54:05.108Z,6.50
2022-11-18T01:54:36.127Z,6.50
2022-11-18T01:55:07.162Z,6.38
2022-11-18T01:55:38.082Z,6.38
2022-11-18T01:56:09.133Z,6.38
2022-11-18T01:56:41.191Z,6.38
2022-11-18T01:57:11.141Z,6.38
2022-11-18T01:57:42.090Z,6.38
2022-11-18T01:58:13.111Z,6.38
2022-11-18T01:58:44.189Z,6.38
2022-11-18T01:59:15.442Z,6.38
2022-11-18T01:59:46.092Z,6.38
2022-11-18T02:00:29.415Z,6.38
2022-11-18T02:00:48.211Z,6.38
2022-11-18T02:01:19.941Z,6.38
2022-11-18T02:01:54.037Z,6.38
2022-11-18T02:02:21.163Z,6.38
2022-11-18T02:02:52.347Z,6.38
2022-11-18T02:03:45.520Z,6.38
2022-11-18T02:03:54.173Z,6.38
2022-11-18T02:04:26.550Z,6.38
2022-11-18T02:04:56.336Z,6.38
2022-11-18T02:05:27.338Z,6.38
2022-11-18T02:05:58.180Z,6.38
2022-11-18T02:06:29.306Z,6.38
2022-11-18T02:07:01.372Z,6.38
2022-11-18T02:07:31.349Z,6.38
2022-11-18T02:08:02.490Z,6.38
2022-11-18T02:08:33.160Z,6.38
2022-11-18T02:09:04.153Z,6.38
2022-11-18T02:09:35.289Z,6.50
2022-11-18T02:10:06.250Z,6.50
2022-11-18T02:10:40.516Z,6.50
2022-11-18T02:11:08.122Z,6.50
2022-11-18T02:11:39.926Z,6.50
2022-11-18T02:12:11.268Z,5.50
2022-11-18T02:12:41.215Z,6.50
2022-11-18T02:13:12.289Z,6.50
2022-11-18T02:13:43.085Z,6.50
2022-11-18T02:14:15.955Z,6.50
2022-11-18T02:14:45.149Z,6.50
2022-11-18T02:15:28.494Z,6.50
2022-11-18T02:15:47.210Z,6.50
2022-11-18T02:16:19.249Z,6.50
2022-11-18T02:16:49.114Z,6.50
2022-11-18T02:17:21.609Z,6.50
2022-11-18T02:17:51.140Z,6.50
2022-11-18T02:18:22.111Z,6.50
2022-11-18T02:18:53.088Z,6.50
2022-11-18T02:19:24.139Z,6.50
2022-11-18T02:19:55.143Z,6.50
2022-11-18T02:20:26.397Z,6.50
2022-11-18T02:20:57.124Z,6.50
2022-11-18T02:21:28.150Z,6.50
2022-11-18T02:21:59.149Z,6.50
2022-11-18T02:22:31.134Z,6.50
2022-11-18T02:23:01.169Z,6.50
2022-11-18T02:23:32.217Z,6.50
2022-11-18T02:24:03.196Z,6.50
2022-11-18T02:24:34.094Z,6.50
2022-11-18T02:25:05.174Z,6.50
2022-11-18T02:25:36.206Z,6.50
2022-11-18T02:26:07.274Z,6.50
2022-11-18T02:26:38.138Z,6.50
2022-11-18T02:27:09.186Z,6.50
2022-11-18T02:27:41.192Z,6.50
2022-11-18T02:28:11.486Z,6.50
2022-11-18T02:28:42.113Z,6.50
2022-11-18T02:29:13.251Z,6.50
2022-11-18T02:29:44.141Z,6.50
2022-11-18T02:30:27.660Z,6.50
2022-11-18T02:30:46.134Z,6.50
2022-11-18T02:31:18.105Z,6.50
2022-11-18T02:31:48.104Z,6.50
2022-11-18T02:32:19.112Z,6.50
2022-11-18T02:32:51.116Z,6.50
2022-11-18T02:33:21.133Z,6.50
2022-11-18T02:33:52.135Z,6.50
2022-11-18T02:34:23.102Z,6.50
2022-11-18T02:34:54.100Z,6.50
2022-11-18T02:35:25.133Z,6.50
2022-11-18T02:35:56.220Z,6.50
2022-11-18T02:36:27.134Z,6.50
2022-11-18T02:36:58.122Z,6.50
2022-11-18T02:37:29.118Z,6.50
2022-11-18T02:38:01.206Z,6.38
2022-11-18T02:38:31.111Z,6.38
2022-11-18T02:39:02.209Z,6.38
2022-11-18T02:39:33.124Z,6.38
2022-11-18T02:40:04.174Z,6.38
2022-11-18T02:40:35.095Z,6.38
2022-11-18T02:41:06.101Z,6.38
2022-11-18T02:41:37.087Z,6.38
2022-11-18T02:42:08.144Z,6.38
2022-11-18T02:42:39.151Z,6.38
2022-11-18T02:43:11.183Z,6.38
2022-11-18T02:43:41.166Z,6.38
2022-11-18T02:44:12.083Z,6.38
2022-11-18T02:44:43.087Z,6.38
2022-11-18T02:45:26.486Z,6.38
2022-11-18T02:45:45.077Z,6.38
2022-11-18T02:46:16.100Z,6.38
2022-11-18T02:46:47.143Z,6.38
2022-11-18T02:47:18.134Z,6.38
2022-11-18T02:47:49.152Z,6.38
2022-11-18T02:48:21.123Z,6.38
2022-11-18T02:48:51.152Z,6.38
2022-11-18T02:49:22.086Z,6.38
2022-11-18T02:49:53.139Z,6.38
2022-11-18T02:50:24.112Z,6.38
2022-11-18T02:50:55.091Z,6.38
2022-11-18T02:51:26.208Z,6.38
2022-11-18T02:51:57.113Z,6.38
2022-11-18T02:52:28.297Z,6.38
2022-11-18T02:52:59.149Z,6.38
2022-11-18T02:53:31.114Z,6.38
2022-11-18T02:54:01.115Z,6.38
2022-11-18T02:54:32.125Z,6.38
2022-11-18T02:55:03.180Z,6.38
2022-11-18T02:55:34.123Z,6.38
2022-11-18T02:56:05.156Z,6.38
2022-11-18T02:56:36.106Z,6.38
2022-11-18T02:57:07.221Z,6.38
2022-11-18T02:57:38.082Z,6.38
2022-11-18T02:58:09.152Z,6.38
2022-11-18T02:58:41.159Z,6.38
2022-11-18T02:59:11.115Z,6.38
2022-11-18T02:59:42.085Z,6.38
2022-11-18T03:00:25.620Z,6.38
2022-11-18T03:00:44.169Z,6.38
2022-11-18T03:01:15.180Z,6.38
2022-11-18T03:01:46.213Z,6.38
2022-11-18T03:02:17.124Z,6.38
2022-11-18T03:02:48.219Z,6.38
2022-11-18T03:03:19.127Z,6.38
2022-11-18T03:03:51.122Z,6.38
2022-11-18T03:04:21.151Z,6.38
2022-11-18T03:04:52.108Z,6.38
2022-11-18T03:05:23.095Z,6.38
2022-11-18T03:05:54.117Z,6.38
2022-11-18T03:06:25.095Z,6.38
2022-11-18T03:06:56.198Z,6.38
2022-11-18T03:07:27.199Z,6.38
2022-11-18T03:07:58.079Z,6.38
2022-11-18T03:08:29.151Z,6.38
2022-11-18T03:09:01.097Z,6.38
2022-11-18T03:09:31.284Z,6.38
2022-11-18T03:10:02.410Z,6.38
2022-11-18T03:10:33.297Z,6.38
2022-11-18T03:11:04.226Z,6.38
2022-11-18T03:11:35.128Z,6.38
2022-11-18T03:12:06.160Z,6.38
2022-11-18T03:12:37.418Z,6.38
2022-11-18T03:13:14.448Z,6.38
2022-11-18T03:13:39.251Z,6.38
2022-11-18T03:14:11.388Z,6.38
2022-11-18T03:14:41.129Z,6.38
2022-11-18T03:15:24.524Z,6.38
2022-11-18T03:15:43.087Z,6.38
2022-11-18T03:16:14.142Z,6.38
2022-11-18T03:16:49.455Z,6.38
2022-11-18T03:17:16.175Z,6.38
2022-11-18T03:17:47.125Z,6.38
2022-11-18T03:18:18.134Z,6.38
2022-11-18T03:18:49.232Z,6.38
2022-11-18T03:19:21.180Z,6.38
2022-11-18T03:19:51.119Z,6.38
2022-11-18T03:20:22.155Z,6.38
2022-11-18T03:20:53.138Z,6.38
2022-11-18T03:21:24.110Z,6.38
2022-11-18T03:21:55.153Z,6.27
2022-11-18T03:22:26.160Z,6.27
2022-11-18T03:22:57.133Z,6.27
2022-11-18T03:23:28.126Z,6.27
2022-11-18T03:23:59.207Z,6.27
2022-11-18T03:24:31.175Z,6.27
2022-11-18T03:25:01.202Z,6.27
2022-11-18T03:25:32.150Z,6.27
2022-11-18T03:26:03.179Z,6.27
2022-11-18T03:26:34.137Z,6.27
2022-11-18T03:27:05.177Z,6.27
2022-11-18T03:27:36.133Z,6.27
2022-11-18T03:28:07.169Z,6.27
2022-11-18T03:28:38.086Z,6.27
2022-11-18T03:29:09.153Z,6.27
2022-11-18T03:29:41.093Z,6.27
2022-11-18T03:30:23.472Z,6.27
2022-11-18T03:30:42.079Z,6.22
2022-11-18T03:31:13.064Z,6.22
2022-11-18T03:31:44.184Z,6.22
2022-11-18T03:32:15.124Z,6.22
2022-11-18T03:32:46.125Z,6.22
2022-11-18T03:33:17.084Z,6.22
2022-11-18T03:33:48.072Z,6.22
2022-11-18T03:34:19.090Z,6.22
2022-11-18T03:34:51.061Z,6.22
2022-11-18T03:35:21.073Z,6.22
2022-11-18T03:35:52.101Z,6.22
2022-11-18T03:36:23.101Z,6.22
2022-11-18T03:36:57.213Z,6.22
2022-11-18T03:37:25.165Z,6.22
2022-11-18T03:37:56.085Z,6.22
2022-11-18T03:38:27.097Z,6.22
2022-11-18T03:38:58.119Z,6.22
2022-11-18T03:39:29.096Z,6.22
2022-11-18T03:40:01.118Z,6.22
2022-11-18T03:40:31.079Z,6.22
2022-11-18T03:41:02.431Z,6.22
2022-11-18T03:41:33.088Z,6.22
2022-11-18T03:42:04.097Z,6.22
2022-11-18T03:42:35.068Z,6.22
2022-11-18T03:43:06.125Z,6.22
2022-11-18T03:43:37.064Z,6.22
2022-11-18T03:44:08.086Z,6.22
2022-11-18T03:44:39.078Z,6.22
2022-11-18T03:45:23.544Z,6.22
2022-11-18T03:45:41.126Z,6.22
2022-11-18T03:46:12.111Z,6.22
2022-11-18T03:46:43.118Z,6.22
2022-11-18T03:47:14.107Z,6.22
2022-11-18T03:47:45.086Z,6.22
2022-11-18T03:48:16.061Z,6.22
2022-11-18T03:48:47.081Z,6.22
2022-11-18T03:49:18.548Z,6.22
2022-11-18T03:49:49.094Z,6.11
2022-11-18T03:50:21.109Z,6.11
2022-11-18T03:50:51.070Z,6.11
2022-11-18T03:51:22.084Z,6.22
2022-11-18T03:51:53.088Z,6.22
2022-11-18T03:52:24.057Z,6.22
2022-11-18T03:52:55.125Z,6.22
2022-11-18T03:53:26.138Z,6.22
2022-11-18T03:53:57.069Z,6.22
2022-11-18T03:54:28.075Z,6.22
2022-11-18T03:54:59.112Z,6.22
2022-11-18T03:55:31.090Z,6.22
2022-11-18T03:56:01.086Z,6.22
2022-11-18T03:56:32.077Z,6.22
2022-11-18T03:57:03.155Z,6.22
2022-11-18T03:57:34.141Z,6.22
2022-11-18T03:58:05.078Z,6.22
2022-11-18T03:58:36.077Z,6.22
2022-11-18T03:59:07.126Z,6.22
2022-11-18T03:59:38.068Z,6.22
2022-11-18T04:00:21.610Z,6.11
2022-11-18T04:00:41.142Z,6.11
2022-11-18T04:01:11.113Z,6.11
2022-11-18T04:01:42.254Z,6.11
2022-11-18T04:02:13.165Z,6.11
2022-11-18T04:02:44.122Z,6.11
2022-11-18T04:03:15.110Z,6.11
2022-11-18T04:03:46.081Z,6.11
2022-11-18T04:04:17.069Z,6.11
2022-11-18T04:04:48.065Z,6.11
2022-11-18T04:05:19.060Z,6.11
2022-11-18T04:05:51.081Z,6.11
2022-11-18T04:06:21.061Z,6.11
2022-11-18T04:06:52.198Z,6.11
2022-11-18T04:07:23.185Z,6.11
2022-11-18T04:07:54.045Z,6.11
2022-11-18T04:08:25.093Z,6.11
2022-11-18T04:08:56.098Z,6.11
2022-11-18T04:09:27.177Z,6.11
2022-11-18T04:09:58.160Z,6.11
2022-11-18T04:10:29.109Z,6.11
2022-11-18T04:11:01.168Z,6.11
2022-11-18T04:11:31.140Z,6.11
2022-11-18T04:12:02.275Z,6.11
2022-11-18T04:12:33.063Z,6.11
2022-11-18T04:13:06.218Z,6.11
2022-11-18T04:13:35.076Z,6.00
2022-11-18T04:14:06.587Z,6.00
2022-11-18T04:14:39.515Z,6.00
2022-11-18T04:15:20.609Z,6.00
2022-11-18T04:15:39.652Z,6.00
2022-11-18T04:16:11.235Z,6.00
2022-11-18T04:16:41.108Z,6.11
2022-11-18T04:17:12.079Z,6.11
2022-11-18T04:17:43.109Z,6.11
2022-11-18T04:18:14.084Z,6.11
2022-11-18T04:18:45.088Z,6.11
2022-11-18T04:19:16.135Z,6.11
2022-11-18T04:19:47.122Z,6.11
2022-11-18T04:20:18.145Z,6.11
2022-11-18T04:20:49.115Z,6.11
2022-11-18T04:21:21.113Z,6.11
2022-11-18T04:21:51.114Z,6.11
2022-11-18T04:22:22.103Z,6.11
2022-11-18T04:22:53.104Z,6.11
2022-11-18T04:23:24.125Z,6.11
2022-11-18T04:23:55.109Z,6.11
2022-11-18T04:24:26.142Z,6.11
2022-11-18T04:24:57.133Z,6.11
2022-11-18T04:25:28.129Z,6.11
2022-11-18T04:25:59.074Z,6.11
2022-11-18T04:26:31.125Z,6.22
2022-11-18T04:27:01.158Z,6.22
2022-11-18T04:27:32.122Z,6.22
2022-11-18T04:28:03.228Z,6.22
2022-11-18T04:28:34.117Z,6.22
2022-11-18T04:29:05.141Z,6.22
2022-11-18T04:29:36.119Z,6.22
2022-11-18T04:30:19.772Z,6.22
2022-11-18T04:30:38.102Z,6.22
2022-11-18T04:31:09.154Z,6.22
2022-11-18T04:31:41.191Z,6.22
2022-11-18T04:32:11.144Z,6.22
2022-11-18T04:32:42.149Z,6.22
2022-11-18T04:33:13.061Z,6.22
2022-11-18T04:33:44.275Z,6.22
2022-11-18T04:34:15.137Z,6.22
2022-11-18T04:34:46.108Z,6.22
2022-11-18T04:35:17.133Z,6.22
2022-11-18T04:35:48.096Z,6.22
2022-11-18T04:36:19.070Z,6.11
2022-11-18T04:36:51.122Z,6.11
2022-11-18T04:37:21.108Z,6.11
2022-11-18T04:37:52.096Z,6.11
2022-11-18T04:38:23.090Z,6.11
2022-11-18T04:38:54.165Z,6.11
2022-11-18T04:39:25.095Z,6.11
2022-11-18T04:39:56.065Z,6.11
2022-11-18T04:40:27.164Z,6.11
2022-11-18T04:40:58.122Z,6.11
2022-11-18T04:41:29.115Z,6.11
2022-11-18T04:42:01.221Z,6.11
2022-11-18T04:42:31.116Z,6.11
2022-11-18T04:43:02.255Z,6.11
2022-11-18T04:43:33.117Z,6.11
2022-11-18T04:44:04.112Z,6.11
2022-11-18T04:44:35.064Z,6.22
2022-11-18T04:45:18.442Z,6.22
2022-11-18T04:45:37.094Z,6.22
2022-11-18T04:46:08.124Z,6.22
2022-11-18T04:46:39.131Z,6.22
2022-11-18T04:47:11.161Z,6.22
2022-11-18T04:47:41.168Z,6.22
2022-11-18T04:48:12.081Z,6.22
2022-11-18T04:48:43.109Z,6.22
2022-11-18T04:49:14.213Z,6.22
2022-11-18T04:49:45.148Z,6.22
2022-11-18T04:50:16.066Z,6.22
2022-11-18T04:50:47.114Z,6.22
2022-11-18T04:51:18.101Z,6.22
2022-11-18T04:51:49.100Z,6.22
2022-11-18T04:52:21.143Z,6.22
2022-11-18T04:52:51.103Z,6.22
2022-11-18T04:53:22.081Z,6.22
2022-11-18T04:53:53.124Z,6.22
2022-11-18T04:54:24.207Z,6.22
2022-11-18T04:54:55.112Z,6.22
2022-11-18T04:55:26.095Z,6.22
2022-11-18T04:55:57.105Z,6.11
2022-11-18T04:56:28.097Z,6.11
2022-11-18T04:56:59.117Z,6.11
2022-11-18T04:57:31.085Z,6.11
2022-11-18T04:58:01.143Z,6.22
2022-11-18T04:58:32.140Z,6.22
2022-11-18T04:59:03.198Z,6.22
2022-11-18T04:59:34.107Z,6.22
2022-11-18T05:00:17.583Z,6.11
2022-11-18T05:00:36.101Z,6.11
2022-11-18T05:01:07.175Z,6.11
2022-11-18T05:01:38.147Z,6.11
2022-11-18T05:02:09.137Z,6.11
2022-11-18T05:02:41.166Z,6.11
2022-11-18T05:03:11.098Z,6.11
2022-11-18T05:03:46.286Z,6.11
2022-11-18T05:04:13.140Z,6.11
2022-11-18T05:04:44.123Z,6.22
2022-11-18T05:05:15.100Z,6.22
2022-11-18T05:05:46.098Z,6.22
2022-11-18T05:06:17.105Z,6.22
2022-11-18T05:06:48.163Z,6.22
2022-11-18T05:07:19.198Z,6.22
2022-11-18T05:07:51.071Z,6.22
2022-11-18T05:08:21.092Z,6.22
2022-11-18T05:08:52.113Z,6.22
2022-11-18T05:09:27.218Z,6.22
2022-11-18T05:09:54.120Z,6.27
2022-11-18T05:10:25.193Z,6.27
2022-11-18T05:10:56.251Z,6.27
2022-11-18T05:11:27.220Z,6.27
2022-11-18T05:11:58.113Z,6.27
2022-11-18T05:12:29.135Z,6.27
2022-11-18T05:13:01.204Z,6.27
2022-11-18T05:13:31.108Z,6.27
2022-11-18T05:14:02.292Z,6.22
2022-11-18T05:14:33.199Z,6.27
2022-11-18T05:15:23.209Z,6.27
2022-11-18T05:15:35.115Z,6.27
2022-11-18T05:16:06.119Z,6.27
2022-11-18T05:16:37.226Z,6.27
2022-11-18T05:17:08.184Z,6.27
2022-11-18T05:17:39.125Z,6.27
2022-11-18T05:18:11.374Z,6.27
2022-11-18T05:18:41.351Z,6.27
2022-11-18T05:19:12.109Z,6.27
2022-11-18T05:19:43.158Z,6.27
2022-11-18T05:20:14.170Z,6.27
2022-11-18T05:20:45.160Z,6.27
2022-11-18T05:21:16.099Z,6.27
2022-11-18T05:21:47.160Z,6.22
2022-11-18T05:22:18.154Z,6.22
2022-11-18T05:22:49.098Z,6.22
2022-11-18T05:23:21.071Z,6.22
2022-11-18T05:23:51.058Z,6.22
2022-11-18T05:24:22.145Z,6.22
2022-11-18T05:24:53.133Z,6.22
2022-11-18T05:25:24.116Z,6.22
2022-11-18T05:25:59.591Z,6.22
2022-11-18T05:26:26.139Z,6.22
2022-11-18T05:26:57.116Z,6.22
2022-11-18T05:27:28.121Z,6.22
2022-11-18T05:27:59.129Z,6.22
2022-11-18T05:28:31.122Z,6.22
2022-11-18T05:29:01.134Z,6.22
2022-11-18T05:29:32.101Z,6.22
2022-11-18T05:30:15.476Z,6.22
2022-11-18T05:30:34.109Z,6.22
2022-11-18T05:31:05.126Z,6.22
2022-11-18T05:31:36.118Z,6.22
2022-11-18T05:32:07.124Z,6.22
2022-11-18T05:32:38.085Z,6.22
2022-11-18T05:33:09.130Z,6.22
2022-11-18T05:33:41.117Z,6.22
2022-11-18T05:34:11.103Z,6.27
2022-11-18T05:34:42.113Z,6.27
2022-11-18T05:35:13.113Z,6.27
2022-11-18T05:35:44.226Z,6.27
2022-11-18T05:36:15.089Z,6.27
2022-11-18T05:36:46.107Z,6.27
2022-11-18T05:37:17.062Z,6.27
2022-11-18T05:37:48.108Z,6.27
2022-11-18T05:38:19.048Z,6.27
2022-11-18T05:38:51.129Z,6.27
2022-11-18T05:39:21.444Z,6.27
2022-11-18T05:39:52.084Z,6.27
2022-11-18T05:40:23.093Z,6.27
2022-11-18T05:40:54.089Z,6.27
2022-11-18T05:41:25.149Z,6.27
2022-11-18T05:41:56.120Z,6.27
2022-11-18T05:42:27.326Z,6.27
2022-11-18T05:42:58.118Z,6.27
2022-11-18T05:43:29.106Z,6.27
2022-11-18T05:44:01.171Z,6.27
2022-11-18T05:44:31.059Z,6.27
2022-11-18T05:45:14.538Z,6.27
2022-11-18T05:45:33.089Z,6.27
2022-11-18T05:46:04.128Z,6.27
2022-11-18T05:46:35.112Z,6.27
2022-11-18T05:47:06.121Z,6.27
2022-11-18T05:47:37.095Z,6.27
2022-11-18T05:48:08.082Z,6.38
2022-11-18T05:48:39.077Z,6.38
2022-11-18T05:49:11.038Z,6.38
2022-11-18T05:49:41.037Z,6.38
2022-11-18T05:50:12.078Z,6.38
2022-11-18T05:50:43.100Z,6.38
2022-11-18T05:51:14.065Z,6.38
2022-11-18T05:51:45.056Z,6.38
2022-11-18T05:52:16.052Z,6.38
2022-11-18T05:52:47.055Z,6.38
2022-11-18T05:53:18.131Z,6.38
2022-11-18T05:53:49.049Z,6.38
2022-11-18T05:54:21.031Z,6.38
2022-11-18T05:54:51.087Z,6.38
2022-11-18T05:55:22.067Z,6.38
2022-11-18T05:55:53.153Z,6.38
2022-11-18T05:56:24.093Z,6.38
2022-11-18T05:56:55.075Z,6.38
2022-11-18T05:57:26.087Z,6.38
2022-11-18T05:57:57.122Z,6.38
2022-11-18T05:58:28.110Z,6.38
2022-11-18T05:58:59.201Z,6.38
2022-11-18T05:59:31.092Z,6.38
2022-11-18T06:00:13.494Z,6.38
2022-11-18T06:00:32.132Z,6.38
2022-11-18T06:01:03.176Z,6.38
2022-11-18T06:01:34.070Z,6.50
2022-11-18T06:02:05.146Z,6.50
2022-11-18T06:02:36.154Z,6.50
2022-11-18T06:03:07.205Z,6.50
2022-11-18T06:03:38.095Z,6.38
2022-11-18T06:04:09.081Z,6.38
2022-11-18T06:04:41.154Z,6.38
2022-11-18T06:05:11.080Z,6.38
2022-11-18T06:05:42.121Z,6.38
2022-11-18T06:06:13.118Z,6.38
2022-11-18T06:06:44.378Z,6.38
2022-11-18T06:07:15.108Z,6.38
2022-11-18T06:07:46.105Z,6.38
2022-11-18T06:08:17.081Z,6.38
2022-11-18T06:08:48.096Z,6.38
2022-11-18T06:09:19.327Z,6.38
2022-11-18T06:09:51.235Z,6.38
2022-11-18T06:10:21.229Z,6.38
2022-11-18T06:10:52.099Z,6.38
2022-11-18T06:11:23.225Z,6.38
2022-11-18T06:11:54.130Z,6.38
2022-11-18T06:12:25.814Z,6.50
2022-11-18T06:12:56.162Z,6.50
2022-11-18T06:13:27.132Z,6.50
2022-11-18T06:13:58.108Z,6.50
2022-11-18T06:14:29.083Z,6.50
2022-11-18T06:15:14.091Z,6.50
2022-11-18T06:15:31.250Z,6.38
2022-11-18T06:16:04.256Z,6.38
2022-11-18T06:16:37.880Z,6.38
2022-11-18T06:17:04.087Z,6.38
2022-11-18T06:17:35.133Z,6.38
2022-11-18T06:18:06.122Z,6.38
2022-11-18T06:18:37.072Z,6.38
2022-11-18T06:19:08.084Z,6.38
2022-11-18T06:19:39.052Z,6.38
2022-11-18T06:20:11.148Z,6.38
2022-11-18T06:20:41.121Z,6.38
2022-11-18T06:21:12.084Z,6.38
2022-11-18T06:21:43.076Z,6.38
2022-11-18T06:22:14.119Z,6.38
2022-11-18T06:22:46.576Z,6.38
2022-11-18T06:23:16.083Z,6.38
2022-11-18T06:23:47.106Z,6.38
2022-11-18T06:24:18.103Z,6.38
2022-11-18T06:24:49.090Z,6.38
2022-11-18T06:25:21.114Z,6.38
2022-11-18T06:25:51.149Z,6.38
2022-11-18T06:26:22.111Z,6.27
2022-11-18T06:26:53.099Z,6.27
2022-11-18T06:27:24.080Z,6.38
2022-11-18T06:27:55.092Z,6.38
2022-11-18T06:28:26.085Z,6.38
2022-11-18T06:28:57.082Z,6.38
2022-11-18T06:29:28.464Z,6.38
2022-11-18T06:29:59.112Z,6.38
2022-11-18T06:30:43.434Z,6.38
2022-11-18T06:31:01.459Z,6.38
2022-11-18T06:31:32.111Z,6.38
2022-11-18T06:32:03.127Z,6.38
2022-11-18T06:32:34.101Z,6.38
2022-11-18T06:33:05.169Z,6.38
2022-11-18T06:33:36.054Z,6.38
2022-11-18T06:34:07.111Z,6.38
2022-11-18T06:34:41.500Z,6.38
2022-11-18T06:35:09.093Z,6.38
2022-11-18T06:35:41.082Z,6.38
2022-11-18T06:36:11.154Z,6.38
2022-11-18T06:36:42.236Z,6.38
2022-11-18T06:37:13.125Z,6.38
2022-11-18T06:37:44.174Z,6.38
2022-11-18T06:38:15.153Z,6.38
2022-11-18T06:38:46.148Z,6.38
2022-11-18T06:39:17.558Z,6.38
2022-11-18T06:39:48.341Z,6.38
2022-11-18T06:40:19.170Z,6.38
2022-11-18T06:40:51.129Z,6.38
2022-11-18T06:41:21.186Z,6.38
2022-11-18T06:41:52.219Z,6.38
2022-11-18T06:42:23.180Z,6.38
2022-11-18T06:42:54.199Z,6.38
2022-11-18T06:43:25.184Z,6.38
2022-11-18T06:43:56.157Z,6.38
2022-11-18T06:44:27.162Z,6.38
2022-11-18T06:44:58.244Z,6.38
2022-11-18T06:45:41.528Z,6.38
2022-11-18T06:46:06.129Z,6.38
2022-11-18T06:46:31.187Z,6.38
2022-11-18T06:47:02.309Z,6.38
2022-11-18T06:47:33.191Z,6.38
2022-11-18T06:48:04.285Z,6.38
2022-11-18T06:48:35.200Z,6.38
2022-11-18T06:49:06.265Z,6.38
2022-11-18T06:49:37.137Z,6.38
2022-11-18T06:50:08.266Z,6.38
2022-11-18T06:50:39.171Z,6.38
2022-11-18T06:51:11.152Z,6.38
2022-11-18T06:51:41.177Z,6.38
2022-11-18T06:52:12.122Z,6.38
2022-11-18T06:52:43.121Z,6.38
2022-11-18T06:53:14.148Z,6.38